sensor_id;sensor_type;location;lat;lon;timestamp;temperature;humidity
32296;DHT22;18781;51.550;5.418;2024-01-16T00:00:54;4.20;80.70
32296;DHT22;18781;51.550;5.418;2024-01-16T00:03:19;4.20;80.70
32296;DHT22;18781;51.550;5.418;2024-01-16T00:05:45;4.20;80.70
32296;DHT22;18781;51.550;5.418;2024-01-16T00:08:10;4.20;80.80
32296;DHT22;18781;51.550;5.418;2024-01-16T00:10:36;4.20;80.80
32296;DHT22;18781;51.550;5.418;2024-01-16T00:13:02;4.20;80.80
32296;DHT22;18781;51.550;5.418;2024-01-16T00:15:27;4.20;80.80
32296;DHT22;18781;51.550;5.418;2024-01-16T00:17:53;4.20;80.80
32296;DHT22;18781;51.550;5.418;2024-01-16T00:20:19;4.20;80.80
32296;DHT22;18781;51.550;5.418;2024-01-16T00:22:45;4.20;80.90
32296;DHT22;18781;51.550;5.418;2024-01-16T00:25:10;4.20;80.90
32296;DHT22;18781;51.550;5.418;2024-01-16T00:27:36;4.20;80.90
32296;DHT22;18781;51.550;5.418;2024-01-16T00:30:02;4.30;81.00
32296;DHT22;18781;51.550;5.418;2024-01-16T00:32:27;4.30;80.90
32296;DHT22;18781;51.550;5.418;2024-01-16T00:34:53;4.20;80.90
32296;DHT22;18781;51.550;5.418;2024-01-16T00:37:19;4.30;80.90
32296;DHT22;18781;51.550;5.418;2024-01-16T00:39:44;4.30;81.00
32296;DHT22;18781;51.550;5.418;2024-01-16T00:42:10;4.30;81.00
32296;DHT22;18781;51.550;5.418;2024-01-16T00:44:35;4.30;81.00
32296;DHT22;18781;51.550;5.418;2024-01-16T00:47:01;4.30;81.50
32296;DHT22;18781;51.550;5.418;2024-01-16T00:49:27;4.30;80.90
32296;DHT22;18781;51.550;5.418;2024-01-16T00:51:54;4.30;80.80
32296;DHT22;18781;51.550;5.418;2024-01-16T00:54:19;4.30;80.80
32296;DHT22;18781;51.550;5.418;2024-01-16T00:56:45;4.30;80.90
32296;DHT22;18781;51.550;5.418;2024-01-16T00:59:11;4.30;80.90
32296;DHT22;18781;51.550;5.418;2024-01-16T01:01:39;4.30;81.00
32296;DHT22;18781;51.550;5.418;2024-01-16T01:04:05;4.30;81.00
32296;DHT22;18781;51.550;5.418;2024-01-16T01:06:30;4.30;81.00
32296;DHT22;18781;51.550;5.418;2024-01-16T01:08:56;4.30;81.60
32296;DHT22;18781;51.550;5.418;2024-01-16T01:11:22;4.30;81.00
32296;DHT22;18781;51.550;5.418;2024-01-16T01:13:47;4.30;81.00
32296;DHT22;18781;51.550;5.418;2024-01-16T01:16:13;4.30;81.10
32296;DHT22;18781;51.550;5.418;2024-01-16T01:18:38;4.30;81.10
32296;DHT22;18781;51.550;5.418;2024-01-16T01:21:04;4.30;81.10
32296;DHT22;18781;51.550;5.418;2024-01-16T01:23:30;4.40;81.10
32296;DHT22;18781;51.550;5.418;2024-01-16T01:25:56;4.30;81.00
32296;DHT22;18781;51.550;5.418;2024-01-16T01:28:22;4.40;81.00
32296;DHT22;18781;51.550;5.418;2024-01-16T01:30:47;4.40;81.00
32296;DHT22;18781;51.550;5.418;2024-01-16T01:33:13;4.40;81.00
32296;DHT22;18781;51.550;5.418;2024-01-16T01:35:38;4.40;80.90
32296;DHT22;18781;51.550;5.418;2024-01-16T01:38:04;4.40;80.90
32296;DHT22;18781;51.550;5.418;2024-01-16T01:40:30;4.40;80.90
32296;DHT22;18781;51.550;5.418;2024-01-16T01:42:55;4.40;80.90
32296;DHT22;18781;51.550;5.418;2024-01-16T01:45:21;4.40;80.90
32296;DHT22;18781;51.550;5.418;2024-01-16T01:47:47;4.40;80.80
32296;DHT22;18781;51.550;5.418;2024-01-16T01:50:13;4.40;80.90
32296;DHT22;18781;51.550;5.418;2024-01-16T01:52:40;4.40;80.90
32296;DHT22;18781;51.550;5.418;2024-01-16T01:55:10;4.40;80.90
32296;DHT22;18781;51.550;5.418;2024-01-16T01:57:35;4.40;80.90
32296;DHT22;18781;51.550;5.418;2024-01-16T02:00:02;4.40;80.90
32296;DHT22;18781;51.550;5.418;2024-01-16T02:02:28;4.40;80.90
32296;DHT22;18781;51.550;5.418;2024-01-16T02:04:55;4.40;80.90
32296;DHT22;18781;51.550;5.418;2024-01-16T02:07:21;4.50;81.00
32296;DHT22;18781;51.550;5.418;2024-01-16T02:09:47;4.40;80.80
32296;DHT22;18781;51.550;5.418;2024-01-16T02:12:13;4.40;80.80
32296;DHT22;18781;51.550;5.418;2024-01-16T02:14:39;4.40;80.80
32296;DHT22;18781;51.550;5.418;2024-01-16T02:17:05;4.50;80.80
32296;DHT22;18781;51.550;5.418;2024-01-16T02:19:31;4.50;80.70
32296;DHT22;18781;51.550;5.418;2024-01-16T02:22:00;4.50;80.70
32296;DHT22;18781;51.550;5.418;2024-01-16T02:24:26;4.40;80.70
32296;DHT22;18781;51.550;5.418;2024-01-16T02:26:53;4.40;80.70
32296;DHT22;18781;51.550;5.418;2024-01-16T02:29:18;4.40;80.70
32296;DHT22;18781;51.550;5.418;2024-01-16T02:31:44;4.40;80.80
32296;DHT22;18781;51.550;5.418;2024-01-16T02:34:10;4.40;80.70
32296;DHT22;18781;51.550;5.418;2024-01-16T02:36:37;4.40;80.70
32296;DHT22;18781;51.550;5.418;2024-01-16T02:39:02;4.50;80.70
32296;DHT22;18781;51.550;5.418;2024-01-16T02:41:28;4.40;80.60
32296;DHT22;18781;51.550;5.418;2024-01-16T02:43:54;4.40;80.60
32296;DHT22;18781;51.550;5.418;2024-01-16T02:46:19;4.40;80.60
32296;DHT22;18781;51.550;5.418;2024-01-16T02:48:45;4.40;80.70
32296;DHT22;18781;51.550;5.418;2024-01-16T02:51:11;4.40;80.70
32296;DHT22;18781;51.550;5.418;2024-01-16T02:53:37;4.40;80.80
32296;DHT22;18781;51.550;5.418;2024-01-16T02:56:03;4.40;80.80
32296;DHT22;18781;51.550;5.418;2024-01-16T02:58:29;4.40;80.80
32296;DHT22;18781;51.550;5.418;2024-01-16T03:00:56;4.40;80.90
32296;DHT22;18781;51.550;5.418;2024-01-16T03:03:23;4.40;81.00
32296;DHT22;18781;51.550;5.418;2024-01-16T03:05:49;4.40;80.90
32296;DHT22;18781;51.550;5.418;2024-01-16T03:08:14;4.40;80.90
32296;DHT22;18781;51.550;5.418;2024-01-16T03:10:40;4.40;80.90
32296;DHT22;18781;51.550;5.418;2024-01-16T03:13:06;4.40;80.80
32296;DHT22;18781;51.550;5.418;2024-01-16T03:15:32;4.40;80.80
32296;DHT22;18781;51.550;5.418;2024-01-16T03:17:58;4.40;80.80
32296;DHT22;18781;51.550;5.418;2024-01-16T03:20:24;4.40;80.80
32296;DHT22;18781;51.550;5.418;2024-01-16T03:22:50;4.50;80.80
32296;DHT22;18781;51.550;5.418;2024-01-16T03:25:18;4.40;80.70
32296;DHT22;18781;51.550;5.418;2024-01-16T03:27:44;4.40;80.60
32296;DHT22;18781;51.550;5.418;2024-01-16T03:30:10;4.40;80.60
32296;DHT22;18781;51.550;5.418;2024-01-16T03:32:37;4.40;80.60
32296;DHT22;18781;51.550;5.418;2024-01-16T03:35:03;4.40;80.60
32296;DHT22;18781;51.550;5.418;2024-01-16T03:37:29;4.40;80.50
32296;DHT22;18781;51.550;5.418;2024-01-16T03:39:55;4.50;80.50
32296;DHT22;18781;51.550;5.418;2024-01-16T03:42:22;4.50;80.50
32296;DHT22;18781;51.550;5.418;2024-01-16T03:44:48;4.40;80.40
32296;DHT22;18781;51.550;5.418;2024-01-16T03:47:13;4.50;80.50
32296;DHT22;18781;51.550;5.418;2024-01-16T03:49:39;4.50;80.60
32296;DHT22;18781;51.550;5.418;2024-01-16T03:52:05;4.50;80.60
32296;DHT22;18781;51.550;5.418;2024-01-16T03:54:30;4.50;80.60
32296;DHT22;18781;51.550;5.418;2024-01-16T03:56:56;4.50;80.60
32296;DHT22;18781;51.550;5.418;2024-01-16T03:59:22;4.50;80.60
32296;DHT22;18781;51.550;5.418;2024-01-16T04:01:48;4.50;80.60
32296;DHT22;18781;51.550;5.418;2024-01-16T04:04:15;4.50;80.60
32296;DHT22;18781;51.550;5.418;2024-01-16T04:06:41;4.40;80.50
32296;DHT22;18781;51.550;5.418;2024-01-16T04:09:08;4.50;80.50
32296;DHT22;18781;51.550;5.418;2024-01-16T04:11:35;4.40;80.50
32296;DHT22;18781;51.550;5.418;2024-01-16T04:14:00;4.40;80.40
32296;DHT22;18781;51.550;5.418;2024-01-16T04:16:26;4.50;80.40
32296;DHT22;18781;51.550;5.418;2024-01-16T04:18:52;4.40;80.30
32296;DHT22;18781;51.550;5.418;2024-01-16T04:21:27;4.40;80.30
32296;DHT22;18781;51.550;5.418;2024-01-16T04:23:53;4.40;80.30
32296;DHT22;18781;51.550;5.418;2024-01-16T04:26:18;4.40;80.30
32296;DHT22;18781;51.550;5.418;2024-01-16T04:28:44;4.40;80.30
32296;DHT22;18781;51.550;5.418;2024-01-16T04:31:11;4.40;80.30
32296;DHT22;18781;51.550;5.418;2024-01-16T04:33:37;4.40;80.20
32296;DHT22;18781;51.550;5.418;2024-01-16T04:36:04;4.40;80.20
32296;DHT22;18781;51.550;5.418;2024-01-16T04:38:30;4.40;80.20
32296;DHT22;18781;51.550;5.418;2024-01-16T04:40:55;4.40;80.10
32296;DHT22;18781;51.550;5.418;2024-01-16T04:43:21;4.40;80.10
32296;DHT22;18781;51.550;5.418;2024-01-16T04:45:47;4.30;80.00
32296;DHT22;18781;51.550;5.418;2024-01-16T04:48:13;4.30;80.00
32296;DHT22;18781;51.550;5.418;2024-01-16T04:50:38;4.30;80.00
32296;DHT22;18781;51.550;5.418;2024-01-16T04:53:04;4.30;80.10
32296;DHT22;18781;51.550;5.418;2024-01-16T04:55:30;4.30;80.10
32296;DHT22;18781;51.550;5.418;2024-01-16T04:57:56;4.20;80.10
32296;DHT22;18781;51.550;5.418;2024-01-16T05:00:22;4.30;80.10
32296;DHT22;18781;51.550;5.418;2024-01-16T05:02:48;4.20;80.10
32296;DHT22;18781;51.550;5.418;2024-01-16T05:05:14;4.20;80.10
32296;DHT22;18781;51.550;5.418;2024-01-16T05:07:40;4.20;80.00
32296;DHT22;18781;51.550;5.418;2024-01-16T05:10:09;4.20;79.90
32296;DHT22;18781;51.550;5.418;2024-01-16T05:12:35;4.20;80.00
32296;DHT22;18781;51.550;5.418;2024-01-16T05:15:00;4.20;79.90
32296;DHT22;18781;51.550;5.418;2024-01-16T05:17:26;4.20;79.90
32296;DHT22;18781;51.550;5.418;2024-01-16T05:19:51;4.20;79.90
32296;DHT22;18781;51.550;5.418;2024-01-16T05:22:17;4.20;79.80
32296;DHT22;18781;51.550;5.418;2024-01-16T05:24:43;4.20;79.80
32296;DHT22;18781;51.550;5.418;2024-01-16T05:27:08;4.10;79.70
32296;DHT22;18781;51.550;5.418;2024-01-16T05:29:34;4.10;79.70
32296;DHT22;18781;51.550;5.418;2024-01-16T05:32:03;4.10;79.90
32296;DHT22;18781;51.550;5.418;2024-01-16T05:34:29;4.10;79.80
32296;DHT22;18781;51.550;5.418;2024-01-16T05:36:54;4.10;79.80
32296;DHT22;18781;51.550;5.418;2024-01-16T05:39:20;4.10;79.80
32296;DHT22;18781;51.550;5.418;2024-01-16T05:41:46;4.10;79.80
32296;DHT22;18781;51.550;5.418;2024-01-16T05:44:12;4.10;79.70
32296;DHT22;18781;51.550;5.418;2024-01-16T05:46:37;4.10;79.70
32296;DHT22;18781;51.550;5.418;2024-01-16T05:49:03;4.00;79.60
32296;DHT22;18781;51.550;5.418;2024-01-16T05:51:29;4.00;79.60
32296;DHT22;18781;51.550;5.418;2024-01-16T05:53:55;4.00;79.50
32296;DHT22;18781;51.550;5.418;2024-01-16T05:56:21;4.00;79.50
32296;DHT22;18781;51.550;5.418;2024-01-16T05:58:46;4.00;79.40
32296;DHT22;18781;51.550;5.418;2024-01-16T06:01:12;3.90;79.30
32296;DHT22;18781;51.550;5.418;2024-01-16T06:03:39;3.90;79.30
32296;DHT22;18781;51.550;5.418;2024-01-16T06:06:05;3.90;79.30
32296;DHT22;18781;51.550;5.418;2024-01-16T06:08:31;3.90;79.20
32296;DHT22;18781;51.550;5.418;2024-01-16T06:10:56;3.90;79.10
32296;DHT22;18781;51.550;5.418;2024-01-16T06:13:22;3.90;79.10
32296;DHT22;18781;51.550;5.418;2024-01-16T06:15:48;3.90;79.00
32296;DHT22;18781;51.550;5.418;2024-01-16T06:18:13;3.80;79.00
32296;DHT22;18781;51.550;5.418;2024-01-16T06:20:39;3.80;79.10
32296;DHT22;18781;51.550;5.418;2024-01-16T06:23:05;3.80;79.10
32296;DHT22;18781;51.550;5.418;2024-01-16T06:25:31;3.80;79.10
32296;DHT22;18781;51.550;5.418;2024-01-16T06:27:56;3.80;79.20
32296;DHT22;18781;51.550;5.418;2024-01-16T06:30:22;3.70;79.10
32296;DHT22;18781;51.550;5.418;2024-01-16T06:32:48;3.70;79.10
32296;DHT22;18781;51.550;5.418;2024-01-16T06:35:15;3.70;79.00
32296;DHT22;18781;51.550;5.418;2024-01-16T06:37:41;3.70;78.90
32296;DHT22;18781;51.550;5.418;2024-01-16T06:40:07;3.70;78.90
32296;DHT22;18781;51.550;5.418;2024-01-16T06:42:33;3.70;78.90
32296;DHT22;18781;51.550;5.418;2024-01-16T06:44:59;3.70;78.90
32296;DHT22;18781;51.550;5.418;2024-01-16T06:47:24;3.60;78.80
32296;DHT22;18781;51.550;5.418;2024-01-16T06:49:50;3.60;78.80
32296;DHT22;18781;51.550;5.418;2024-01-16T06:52:16;3.60;78.70
32296;DHT22;18781;51.550;5.418;2024-01-16T06:54:41;3.60;78.80
32296;DHT22;18781;51.550;5.418;2024-01-16T06:57:07;3.60;78.80
32296;DHT22;18781;51.550;5.418;2024-01-16T06:59:33;3.60;78.80
32296;DHT22;18781;51.550;5.418;2024-01-16T07:01:59;3.50;78.70
32296;DHT22;18781;51.550;5.418;2024-01-16T07:04:24;3.60;78.80
32296;DHT22;18781;51.550;5.418;2024-01-16T07:06:50;3.50;78.70
32296;DHT22;18781;51.550;5.418;2024-01-16T07:09:16;3.50;78.70
32296;DHT22;18781;51.550;5.418;2024-01-16T07:11:43;3.50;78.70
32296;DHT22;18781;51.550;5.418;2024-01-16T07:14:09;3.50;78.70
32296;DHT22;18781;51.550;5.418;2024-01-16T07:16:35;3.50;78.70
32296;DHT22;18781;51.550;5.418;2024-01-16T07:19:02;3.50;78.70
32296;DHT22;18781;51.550;5.418;2024-01-16T07:21:27;3.50;78.70
32296;DHT22;18781;51.550;5.418;2024-01-16T07:23:53;3.50;78.70
32296;DHT22;18781;51.550;5.418;2024-01-16T07:26:19;3.50;78.70
32296;DHT22;18781;51.550;5.418;2024-01-16T07:28:45;3.40;78.60
32296;DHT22;18781;51.550;5.418;2024-01-16T07:31:11;3.40;78.60
32296;DHT22;18781;51.550;5.418;2024-01-16T07:33:37;3.40;78.50
32296;DHT22;18781;51.550;5.418;2024-01-16T07:36:02;3.40;78.60
32296;DHT22;18781;51.550;5.418;2024-01-16T07:38:28;3.40;78.50
32296;DHT22;18781;51.550;5.418;2024-01-16T07:40:54;3.40;78.50
32296;DHT22;18781;51.550;5.418;2024-01-16T07:43:21;3.40;78.50
32296;DHT22;18781;51.550;5.418;2024-01-16T07:45:47;3.40;78.50
32296;DHT22;18781;51.550;5.418;2024-01-16T07:48:13;3.40;78.50
32296;DHT22;18781;51.550;5.418;2024-01-16T07:50:39;3.40;78.50
32296;DHT22;18781;51.550;5.418;2024-01-16T07:53:04;3.40;78.40
32296;DHT22;18781;51.550;5.418;2024-01-16T07:55:30;3.40;78.40
32296;DHT22;18781;51.550;5.418;2024-01-16T07:57:55;3.40;78.40
32296;DHT22;18781;51.550;5.418;2024-01-16T08:00:21;3.40;78.30
32296;DHT22;18781;51.550;5.418;2024-01-16T08:02:47;3.40;78.30
32296;DHT22;18781;51.550;5.418;2024-01-16T08:05:13;3.40;78.30
32296;DHT22;18781;51.550;5.418;2024-01-16T08:07:38;3.40;78.30
32296;DHT22;18781;51.550;5.418;2024-01-16T08:10:04;3.40;78.30
32296;DHT22;18781;51.550;5.418;2024-01-16T08:12:30;3.40;78.40
32296;DHT22;18781;51.550;5.418;2024-01-16T08:14:56;3.40;78.40
32296;DHT22;18781;51.550;5.418;2024-01-16T08:17:21;3.40;78.30
32296;DHT22;18781;51.550;5.418;2024-01-16T08:19:47;3.40;78.30
32296;DHT22;18781;51.550;5.418;2024-01-16T08:22:12;3.40;78.20
32296;DHT22;18781;51.550;5.418;2024-01-16T08:24:38;3.40;78.30
32296;DHT22;18781;51.550;5.418;2024-01-16T08:27:04;3.40;78.20
32296;DHT22;18781;51.550;5.418;2024-01-16T08:29:29;3.40;78.20
32296;DHT22;18781;51.550;5.418;2024-01-16T08:31:55;3.30;78.20
32296;DHT22;18781;51.550;5.418;2024-01-16T08:34:21;3.40;78.30
32296;DHT22;18781;51.550;5.418;2024-01-16T08:36:46;3.40;78.30
32296;DHT22;18781;51.550;5.418;2024-01-16T08:39:12;3.40;78.30
32296;DHT22;18781;51.550;5.418;2024-01-16T08:41:39;3.40;78.20
32296;DHT22;18781;51.550;5.418;2024-01-16T08:44:04;3.40;78.20
32296;DHT22;18781;51.550;5.418;2024-01-16T08:46:30;3.40;78.10
32296;DHT22;18781;51.550;5.418;2024-01-16T08:48:56;3.50;78.10
32296;DHT22;18781;51.550;5.418;2024-01-16T08:51:22;3.50;78.00
32296;DHT22;18781;51.550;5.418;2024-01-16T08:53:48;3.50;77.90
32296;DHT22;18781;51.550;5.418;2024-01-16T08:56:14;3.50;78.00
32296;DHT22;18781;51.550;5.418;2024-01-16T08:58:39;3.40;77.90
32296;DHT22;18781;51.550;5.418;2024-01-16T09:01:05;3.50;78.00
32296;DHT22;18781;51.550;5.418;2024-01-16T09:03:34;3.40;77.80
32296;DHT22;18781;51.550;5.418;2024-01-16T09:06:00;3.50;77.70
32296;DHT22;18781;51.550;5.418;2024-01-16T09:08:27;3.50;77.70
32296;DHT22;18781;51.550;5.418;2024-01-16T09:10:53;3.50;77.80
32296;DHT22;18781;51.550;5.418;2024-01-16T09:13:19;3.50;77.80
32296;DHT22;18781;51.550;5.418;2024-01-16T09:15:49;3.50;77.90
32296;DHT22;18781;51.550;5.418;2024-01-16T09:18:17;3.50;77.90
32296;DHT22;18781;51.550;5.418;2024-01-16T09:20:43;3.50;77.90
32296;DHT22;18781;51.550;5.418;2024-01-16T09:23:09;3.50;77.90
32296;DHT22;18781;51.550;5.418;2024-01-16T09:25:35;3.50;77.90
32296;DHT22;18781;51.550;5.418;2024-01-16T09:28:01;3.60;77.70
32296;DHT22;18781;51.550;5.418;2024-01-16T09:30:27;3.60;77.70
32296;DHT22;18781;51.550;5.418;2024-01-16T09:32:53;3.60;77.60
32296;DHT22;18781;51.550;5.418;2024-01-16T09:35:18;3.60;77.60
32296;DHT22;18781;51.550;5.418;2024-01-16T09:37:44;3.60;77.50
32296;DHT22;18781;51.550;5.418;2024-01-16T09:40:10;3.60;77.50
32296;DHT22;18781;51.550;5.418;2024-01-16T09:42:36;3.60;77.50
32296;DHT22;18781;51.550;5.418;2024-01-16T09:45:02;3.60;77.40
32296;DHT22;18781;51.550;5.418;2024-01-16T09:47:30;3.70;77.40
32296;DHT22;18781;51.550;5.418;2024-01-16T09:49:59;3.70;77.20
32296;DHT22;18781;51.550;5.418;2024-01-16T09:52:26;3.70;77.20
32296;DHT22;18781;51.550;5.418;2024-01-16T09:54:52;3.70;77.20
32296;DHT22;18781;51.550;5.418;2024-01-16T09:57:19;3.70;77.20
32296;DHT22;18781;51.550;5.418;2024-01-16T09:59:48;3.70;77.20
32296;DHT22;18781;51.550;5.418;2024-01-16T10:02:14;3.70;77.20
32296;DHT22;18781;51.550;5.418;2024-01-16T10:04:43;3.70;77.30
32296;DHT22;18781;51.550;5.418;2024-01-16T10:07:10;3.70;77.10
32296;DHT22;18781;51.550;5.418;2024-01-16T10:09:38;3.80;77.20
32296;DHT22;18781;51.550;5.418;2024-01-16T10:12:05;3.80;77.10
32296;DHT22;18781;51.550;5.418;2024-01-16T10:14:32;3.80;77.10
32296;DHT22;18781;51.550;5.418;2024-01-16T10:16:59;3.80;77.00
32296;DHT22;18781;51.550;5.418;2024-01-16T10:19:29;3.80;77.00
32296;DHT22;18781;51.550;5.418;2024-01-16T10:22:04;3.90;76.90
32296;DHT22;18781;51.550;5.418;2024-01-16T10:24:32;3.90;76.60
32296;DHT22;18781;51.550;5.418;2024-01-16T10:27:01;3.90;76.80
32296;DHT22;18781;51.550;5.418;2024-01-16T10:29:28;3.90;76.80
32296;DHT22;18781;51.550;5.418;2024-01-16T10:31:55;3.90;76.90
32296;DHT22;18781;51.550;5.418;2024-01-16T10:34:22;3.90;77.40
32296;DHT22;18781;51.550;5.418;2024-01-16T10:36:52;3.90;76.70
32296;DHT22;18781;51.550;5.418;2024-01-16T10:39:23;3.90;76.70
32296;DHT22;18781;51.550;5.418;2024-01-16T10:41:57;4.00;76.90
32296;DHT22;18781;51.550;5.418;2024-01-16T10:44:22;4.00;76.60
32296;DHT22;18781;51.550;5.418;2024-01-16T10:46:49;4.00;76.70
32296;DHT22;18781;51.550;5.418;2024-01-16T10:49:14;4.00;76.80
32296;DHT22;18781;51.550;5.418;2024-01-16T10:51:43;4.00;76.90
32296;DHT22;18781;51.550;5.418;2024-01-16T10:54:12;4.00;76.90
32296;DHT22;18781;51.550;5.418;2024-01-16T10:56:46;4.00;76.80
32296;DHT22;18781;51.550;5.418;2024-01-16T10:59:19;4.10;76.90
32296;DHT22;18781;51.550;5.418;2024-01-16T11:01:50;4.10;76.50
32296;DHT22;18781;51.550;5.418;2024-01-16T11:04:18;4.10;76.60
32296;DHT22;18781;51.550;5.418;2024-01-16T11:06:46;4.20;76.70
32296;DHT22;18781;51.550;5.418;2024-01-16T11:09:13;4.20;76.60
32296;DHT22;18781;51.550;5.418;2024-01-16T11:11:43;4.20;76.50
32296;DHT22;18781;51.550;5.418;2024-01-16T11:14:15;4.30;76.50
32296;DHT22;18781;51.550;5.418;2024-01-16T11:16:41;4.30;76.40
32296;DHT22;18781;51.550;5.418;2024-01-16T11:19:10;4.30;76.20
32296;DHT22;18781;51.550;5.418;2024-01-16T11:21:37;4.30;75.90
32296;DHT22;18781;51.550;5.418;2024-01-16T11:24:03;4.30;76.10
32296;DHT22;18781;51.550;5.418;2024-01-16T11:26:31;4.30;76.00
32296;DHT22;18781;51.550;5.418;2024-01-16T11:31:57;4.40;75.80
32296;DHT22;18781;51.550;5.418;2024-01-16T11:37:08;4.40;75.20
32296;DHT22;18781;51.550;5.418;2024-01-16T11:39:34;4.50;75.70
32296;DHT22;18781;51.550;5.418;2024-01-16T11:42:00;4.50;75.50
32296;DHT22;18781;51.550;5.418;2024-01-16T11:47:20;4.50;75.30
32296;DHT22;18781;51.550;5.418;2024-01-16T11:49:47;4.50;75.40
32296;DHT22;18781;51.550;5.418;2024-01-16T11:52:13;4.60;75.80
32296;DHT22;18781;51.550;5.418;2024-01-16T11:54:42;4.60;75.70
32296;DHT22;18781;51.550;5.418;2024-01-16T12:00:04;4.60;75.20
32296;DHT22;18781;51.550;5.418;2024-01-16T12:02:49;4.70;75.20
32296;DHT22;18781;51.550;5.418;2024-01-16T12:05:14;4.70;75.70
32296;DHT22;18781;51.550;5.418;2024-01-16T12:07:49;4.70;75.50
32296;DHT22;18781;51.550;5.418;2024-01-16T12:10:19;4.70;75.20
32296;DHT22;18781;51.550;5.418;2024-01-16T12:12:46;4.80;75.10
32296;DHT22;18781;51.550;5.418;2024-01-16T12:15:16;4.80;75.20
32296;DHT22;18781;51.550;5.418;2024-01-16T12:17:56;4.80;74.80
32296;DHT22;18781;51.550;5.418;2024-01-16T12:20:23;4.80;74.50
32296;DHT22;18781;51.550;5.418;2024-01-16T12:22:57;4.80;75.00
32296;DHT22;18781;51.550;5.418;2024-01-16T12:25:23;4.90;75.00
32296;DHT22;18781;51.550;5.418;2024-01-16T12:30:33;4.90;74.50
32296;DHT22;18781;51.550;5.418;2024-01-16T12:33:13;5.00;74.70
32296;DHT22;18781;51.550;5.418;2024-01-16T12:35:41;5.00;74.40
32296;DHT22;18781;51.550;5.418;2024-01-16T12:38:08;5.00;74.50
32296;DHT22;18781;51.550;5.418;2024-01-16T12:40:40;5.10;74.30
32296;DHT22;18781;51.550;5.418;2024-01-16T12:43:06;5.10;74.20
32296;DHT22;18781;51.550;5.418;2024-01-16T12:45:32;5.10;74.60
32296;DHT22;18781;51.550;5.418;2024-01-16T12:48:00;5.10;74.30
32296;DHT22;18781;51.550;5.418;2024-01-16T12:50:27;5.10;74.00
32296;DHT22;18781;51.550;5.418;2024-01-16T12:53:04;5.20;74.00
32296;DHT22;18781;51.550;5.418;2024-01-16T12:55:31;5.20;74.40
32296;DHT22;18781;51.550;5.418;2024-01-16T12:58:15;5.20;73.70
32296;DHT22;18781;51.550;5.418;2024-01-16T13:00:45;5.20;72.90
32296;DHT22;18781;51.550;5.418;2024-01-16T13:03:23;5.20;73.60
32296;DHT22;18781;51.550;5.418;2024-01-16T13:05:58;5.20;73.20
32296;DHT22;18781;51.550;5.418;2024-01-16T13:08:26;5.20;73.60
32296;DHT22;18781;51.550;5.418;2024-01-16T13:11:05;5.30;73.90
32296;DHT22;18781;51.550;5.418;2024-01-16T13:13:31;5.30;72.60
32296;DHT22;18781;51.550;5.418;2024-01-16T13:15:58;5.30;73.40
32296;DHT22;18781;51.550;5.418;2024-01-16T13:18:25;5.40;73.50
32296;DHT22;18781;51.550;5.418;2024-01-16T13:20:52;5.40;73.30
32296;DHT22;18781;51.550;5.418;2024-01-16T13:23:19;5.40;73.10
32296;DHT22;18781;51.550;5.418;2024-01-16T13:25:46;5.40;72.80
32296;DHT22;18781;51.550;5.418;2024-01-16T13:28:13;5.40;72.90
32296;DHT22;18781;51.550;5.418;2024-01-16T13:30:39;5.50;72.90
32296;DHT22;18781;51.550;5.418;2024-01-16T13:33:05;5.50;72.50
32296;DHT22;18781;51.550;5.418;2024-01-16T13:35:31;5.50;72.30
32296;DHT22;18781;51.550;5.418;2024-01-16T13:37:58;5.50;72.00
32296;DHT22;18781;51.550;5.418;2024-01-16T13:40:23;5.50;72.10
32296;DHT22;18781;51.550;5.418;2024-01-16T13:42:49;5.50;72.10
32296;DHT22;18781;51.550;5.418;2024-01-16T13:45:14;5.50;72.10
32296;DHT22;18781;51.550;5.418;2024-01-16T13:47:40;5.50;72.20
32296;DHT22;18781;51.550;5.418;2024-01-16T13:50:06;5.50;72.10
32296;DHT22;18781;51.550;5.418;2024-01-16T13:52:34;5.60;72.10
32296;DHT22;18781;51.550;5.418;2024-01-16T13:55:00;5.60;72.00
32296;DHT22;18781;51.550;5.418;2024-01-16T13:57:29;5.60;71.60
32296;DHT22;18781;51.550;5.418;2024-01-16T13:59:54;5.60;71.50
32296;DHT22;18781;51.550;5.418;2024-01-16T14:02:20;5.60;71.60
32296;DHT22;18781;51.550;5.418;2024-01-16T14:04:46;5.60;71.60
32296;DHT22;18781;51.550;5.418;2024-01-16T14:07:11;5.50;71.40
32296;DHT22;18781;51.550;5.418;2024-01-16T14:09:37;5.50;71.30
32296;DHT22;18781;51.550;5.418;2024-01-16T14:12:03;5.50;71.30
32296;DHT22;18781;51.550;5.418;2024-01-16T14:14:29;5.50;71.40
32296;DHT22;18781;51.550;5.418;2024-01-16T14:16:56;5.50;71.70
32296;DHT22;18781;51.550;5.418;2024-01-16T14:19:22;5.50;71.60
32296;DHT22;18781;51.550;5.418;2024-01-16T14:21:50;5.50;71.40
32296;DHT22;18781;51.550;5.418;2024-01-16T14:24:15;5.50;71.40
32296;DHT22;18781;51.550;5.418;2024-01-16T14:26:44;5.50;71.50
32296;DHT22;18781;51.550;5.418;2024-01-16T14:29:11;5.50;71.10
32296;DHT22;18781;51.550;5.418;2024-01-16T14:31:37;5.50;71.30
32296;DHT22;18781;51.550;5.418;2024-01-16T14:34:02;5.50;71.30
32296;DHT22;18781;51.550;5.418;2024-01-16T14:36:29;5.50;71.30
32296;DHT22;18781;51.550;5.418;2024-01-16T14:38:55;5.50;71.10
32296;DHT22;18781;51.550;5.418;2024-01-16T14:41:21;5.50;71.10
32296;DHT22;18781;51.550;5.418;2024-01-16T14:43:47;5.40;71.20
32296;DHT22;18781;51.550;5.418;2024-01-16T14:46:13;5.40;71.20
32296;DHT22;18781;51.550;5.418;2024-01-16T14:48:44;5.40;71.10
32296;DHT22;18781;51.550;5.418;2024-01-16T14:51:10;5.40;70.90
32296;DHT22;18781;51.550;5.418;2024-01-16T14:53:36;5.40;71.10
32296;DHT22;18781;51.550;5.418;2024-01-16T14:56:02;5.30;71.30
32296;DHT22;18781;51.550;5.418;2024-01-16T14:58:28;5.30;71.10
32296;DHT22;18781;51.550;5.418;2024-01-16T15:00:54;5.30;71.10
32296;DHT22;18781;51.550;5.418;2024-01-16T15:03:24;5.30;71.10
32296;DHT22;18781;51.550;5.418;2024-01-16T15:05:50;5.30;71.10
32296;DHT22;18781;51.550;5.418;2024-01-16T15:08:18;5.30;71.20
32296;DHT22;18781;51.550;5.418;2024-01-16T15:10:44;5.30;71.20
32296;DHT22;18781;51.550;5.418;2024-01-16T15:13:10;5.30;71.10
32296;DHT22;18781;51.550;5.418;2024-01-16T15:15:35;5.30;71.10
32296;DHT22;18781;51.550;5.418;2024-01-16T15:18:02;5.20;70.70
32296;DHT22;18781;51.550;5.418;2024-01-16T15:20:28;5.20;70.70
32296;DHT22;18781;51.550;5.418;2024-01-16T15:22:53;5.20;70.70
32296;DHT22;18781;51.550;5.418;2024-01-16T15:25:19;5.20;70.60
32296;DHT22;18781;51.550;5.418;2024-01-16T15:27:51;5.20;70.60
32296;DHT22;18781;51.550;5.418;2024-01-16T15:30:22;5.10;70.60
32296;DHT22;18781;51.550;5.418;2024-01-16T15:32:50;5.10;70.50
32296;DHT22;18781;51.550;5.418;2024-01-16T15:35:16;5.10;70.70
32296;DHT22;18781;51.550;5.418;2024-01-16T15:37:42;5.00;70.70
32296;DHT22;18781;51.550;5.418;2024-01-16T15:40:09;5.00;70.60
32296;DHT22;18781;51.550;5.418;2024-01-16T15:42:37;5.00;70.50
32296;DHT22;18781;51.550;5.418;2024-01-16T15:45:05;5.00;70.50
32296;DHT22;18781;51.550;5.418;2024-01-16T15:47:32;5.00;70.40
32296;DHT22;18781;51.550;5.418;2024-01-16T15:49:58;5.00;70.30
32296;DHT22;18781;51.550;5.418;2024-01-16T15:52:24;4.90;70.30
32296;DHT22;18781;51.550;5.418;2024-01-16T15:54:50;4.90;70.30